Alpental, Washington
Current Conditions -  °F | °C
As of 3:53 AM on Thursday 23 Oct 2014 (Local Time) from KRNT Reporting Station
Haze Haze  
Wind Chill: 53°   Ceiling: 11000
Heat Index: 53°   Visibility: 6mi
Dew Point: 51°   Wind: 3mph
Humidity: 93%   Direction: 160°SSE
Pressure: 29.72"   Gusts: NA
Location:  47.4076°N, 121.414°W
Report Text: KRNT 231053Z AUTO 16003KT 6SM BR SCT060 SCT075 OVC110 12/11 A2972 RMK AO2 RAB30E41 SLP067 P0000 T01170106
Loading
Personal Weather Stations






























Interactive Weather Map
Tropical Storm Tracking
New forecast layout! Learn more

10-Day Weather Forecast

Advertisements
Track Severe Weather on mobile